createdAt,value
2022-08-07T00:00:29.973Z,16.62
2022-08-07T00:03:02.788Z,16.64
2022-08-07T00:05:36.136Z,16.65
2022-08-07T00:08:09.275Z,16.64
2022-08-07T00:10:47.917Z,16.65
2022-08-07T00:13:25.886Z,16.68
2022-08-07T00:15:59.299Z,16.67
2022-08-07T00:18:32.643Z,16.67
2022-08-07T00:21:07.998Z,16.63
2022-08-07T00:23:59.496Z,16.50
2022-08-07T00:26:58.713Z,16.43
2022-08-07T00:29:31.261Z,16.39
2022-08-07T00:32:03.646Z,16.36
2022-08-07T00:34:38.086Z,16.35
2022-08-07T00:37:10.437Z,16.33
2022-08-07T00:39:45.235Z,16.34
2022-08-07T00:42:29.185Z,16.30
2022-08-07T00:45:01.374Z,16.28
2022-08-07T00:48:05.382Z,16.24
2022-08-07T00:50:50.548Z,16.16
2022-08-07T00:53:23.380Z,16.18
2022-08-07T00:56:02.952Z,16.20
2022-08-07T00:58:35.841Z,16.14
2022-08-07T01:01:10.149Z,16.13
2022-08-07T01:03:57.062Z,16.13
2022-08-07T01:06:31.933Z,16.13
2022-08-07T01:09:04.943Z,16.13
2022-08-07T01:12:23.320Z,16.12
2022-08-07T01:14:30.107Z,16.13
2022-08-07T01:17:04.249Z,16.11
2022-08-07T01:19:39.935Z,16.12
2022-08-07T01:22:29.432Z,16.11
2022-08-07T01:25:02.543Z,16.11
2022-08-07T01:27:56.088Z,16.12
2022-08-07T01:30:30.049Z,16.07
2022-08-07T01:33:02.153Z,16.05
2022-08-07T01:35:52.706Z,16.04
2022-08-07T01:38:29.180Z,16.04
2022-08-07T01:41:04.443Z,15.97
2022-08-07T01:43:39.005Z,15.95
2022-08-07T01:46:12.166Z,15.92
2022-08-07T01:48:47.593Z,15.89
2022-08-07T01:52:00.941Z,15.91
2022-08-07T01:54:37.048Z,15.87
2022-08-07T01:57:24.952Z,15.86
2022-08-07T02:00:12.983Z,15.81
2022-08-07T02:03:12.016Z,15.82
2022-08-07T02:06:08.937Z,15.82
2022-08-07T02:08:57.369Z,15.80
2022-08-07T02:12:03.644Z,15.74
2022-08-07T02:14:35.903Z,15.74
2022-08-07T02:17:11.398Z,15.75
2022-08-07T02:20:04.156Z,15.74
2022-08-07T02:22:41.487Z,15.73
2022-08-07T02:25:19.071Z,15.74
2022-08-07T02:27:53.060Z,15.76
2022-08-07T02:30:26.712Z,15.74
2022-08-07T02:33:09.251Z,15.68
2022-08-07T02:36:28.315Z,15.66
2022-08-07T02:38:40.029Z,15.65
2022-08-07T02:41:24.377Z,15.64
2022-08-07T02:44:10.318Z,15.64
2022-08-07T02:46:46.911Z,15.62
2022-08-07T02:49:28.849Z,15.60
2022-08-07T02:52:30.927Z,15.56
2022-08-07T02:55:27.359Z,15.52
2022-08-07T02:58:07.944Z,15.53
2022-08-07T03:00:46.825Z,15.53
2022-08-07T03:03:22.878Z,15.50
2022-08-07T03:05:57.356Z,15.52
2022-08-07T03:08:30.636Z,15.46
2022-08-07T03:11:03.173Z,15.44
2022-08-07T03:13:38.770Z,15.42
2022-08-07T03:16:11.591Z,15.38
2022-08-07T03:18:44.555Z,15.39
2022-08-07T03:21:19.860Z,15.38
2022-08-07T03:24:18.062Z,15.35
2022-08-07T03:26:58.522Z,15.34
2022-08-07T03:29:38.070Z,15.36
2022-08-07T03:32:13.518Z,15.39
2022-08-07T03:35:01.026Z,15.42
2022-08-07T03:37:46.463Z,15.38
2022-08-07T03:40:31.004Z,15.38
2022-08-07T03:43:09.994Z,15.32
2022-08-07T03:45:47.824Z,15.33
2022-08-07T03:48:21.331Z,15.30
2022-08-07T03:50:57.722Z,15.30
2022-08-07T03:54:33.098Z,15.26
2022-08-07T03:56:33.276Z,15.27
2022-08-07T03:59:12.930Z,15.22
2022-08-07T04:01:46.774Z,15.23
2022-08-07T04:04:19.435Z,15.21
2022-08-07T04:06:52.879Z,15.17
2022-08-07T04:09:44.843Z,15.13
2022-08-07T04:12:25.275Z,15.15
2022-08-07T04:15:00.483Z,15.14
2022-08-07T04:18:57.824Z,15.10
2022-08-07T04:20:25.395Z,15.08
2022-08-07T04:23:01.505Z,15.13
2022-08-07T04:25:39.403Z,15.15
2022-08-07T04:28:13.434Z,15.16
2022-08-07T04:30:57.237Z,15.16
2022-08-07T04:33:31.289Z,15.16
2022-08-07T04:36:11.732Z,15.12
2022-08-07T04:38:44.600Z,15.11
2022-08-07T04:41:18.187Z,15.10
2022-08-07T04:44:12.419Z,15.14
2022-08-07T04:47:03.845Z,15.15
2022-08-07T04:49:58.079Z,15.17
2022-08-07T04:52:58.781Z,15.20
2022-08-07T04:58:15.667Z,15.16
2022-08-07T04:59:17.818Z,15.16
2022-08-07T05:01:46.790Z,15.19
2022-08-07T05:04:37.725Z,15.19
2022-08-07T05:07:30.663Z,15.15
2022-08-07T05:10:18.994Z,15.18
2022-08-07T05:14:55.033Z,15.18
2022-08-07T05:16:31.713Z,15.21
2022-08-07T05:19:10.794Z,15.28
2022-08-07T05:22:00.134Z,15.37
2022-08-07T05:24:40.356Z,15.37
2022-08-07T05:28:03.387Z,15.44
2022-08-07T05:30:08.351Z,15.59
2022-08-07T05:32:45.696Z,15.65
2022-08-07T05:35:33.122Z,15.74
2022-08-07T05:38:08.935Z,15.85
2022-08-07T05:40:50.381Z,15.90
2022-08-07T05:43:49.771Z,15.94
2022-08-07T05:46:19.996Z,15.96
2022-08-07T05:48:59.698Z,15.88
2022-08-07T05:51:33.319Z,15.97
2022-08-07T05:54:30.809Z,16.01
2022-08-07T05:57:04.404Z,16.17
2022-08-07T05:59:55.809Z,16.26
2022-08-07T06:02:33.506Z,16.40
2022-08-07T06:05:15.426Z,16.47
2022-08-07T06:08:14.294Z,16.59
2022-08-07T06:10:42.544Z,16.66
2022-08-07T06:13:15.685Z,16.69
2022-08-07T06:15:50.110Z,16.73
2022-08-07T06:18:23.421Z,16.64
2022-08-07T06:22:14.804Z,16.74
2022-08-07T06:24:38.365Z,16.74
2022-08-07T06:26:46.157Z,16.75
2022-08-07T06:29:19.218Z,16.75
2022-08-07T06:31:51.394Z,16.82
2022-08-07T06:34:29.664Z,16.76
2022-08-07T06:37:02.816Z,16.82
2022-08-07T06:40:15.683Z,16.93
2022-08-07T06:42:37.515Z,16.94
2022-08-07T06:45:18.325Z,16.94
2022-08-07T06:47:57.321Z,17.04
2022-08-07T06:50:33.622Z,17.08
2022-08-07T06:53:49.209Z,17.10
2022-08-07T06:56:03.964Z,17.09
2022-08-07T06:58:40.602Z,17.14
2022-08-07T07:01:43.702Z,17.27
2022-08-07T07:04:32.650Z,17.10
2022-08-07T07:07:18.899Z,17.30
2022-08-07T07:09:59.776Z,17.48
2022-08-07T07:12:50.305Z,17.68
2022-08-07T07:15:36.189Z,17.82
2022-08-07T07:18:47.097Z,17.91
2022-08-07T07:21:26.957Z,18.03
2022-08-07T07:24:12.815Z,18.19
2022-08-07T07:26:49.620Z,18.31
2022-08-07T07:29:56.679Z,18.28
2022-08-07T07:32:23.723Z,18.34
2022-08-07T07:34:59.532Z,18.48
2022-08-07T07:37:49.469Z,18.71
2022-08-07T07:40:26.055Z,18.66
2022-08-07T07:43:11.579Z,18.85
2022-08-07T07:46:37.246Z,19.02
2022-08-07T07:48:43.182Z,19.23
2022-08-07T07:51:20.410Z,19.46
2022-08-07T07:53:54.548Z,19.60
2022-08-07T07:56:32.700Z,19.76
2022-08-07T07:59:06.641Z,19.92
2022-08-07T08:02:02.299Z,20.14
2022-08-07T08:04:37.319Z,20.59
2022-08-07T08:07:11.540Z,21.19
2022-08-07T08:09:51.653Z,22.12
2022-08-07T08:12:51.218Z,23.15
2022-08-07T08:15:16.888Z,24.27
2022-08-07T08:17:58.796Z,25.17
2022-08-07T08:20:49.732Z,26.22
2022-08-07T08:23:41.405Z,27.16
2022-08-07T08:26:34.687Z,27.84
2022-08-07T08:29:10.890Z,27.97
2022-08-07T08:32:17.386Z,28.23
2022-08-07T08:34:42.399Z,28.68
2022-08-07T08:37:59.035Z,28.93
2022-08-07T08:40:28.530Z,28.59
2022-08-07T08:43:58.806Z,28.37
2022-08-07T08:46:59.513Z,27.38
2022-08-07T08:50:02.733Z,27.44
2022-08-07T08:53:04.424Z,27.84
2022-08-07T08:55:54.585Z,28.34
2022-08-07T08:59:06.298Z,28.41
2022-08-07T09:02:01.382Z,28.59
2022-08-07T09:05:26.370Z,28.96
2022-08-07T09:08:29.113Z,28.91
2022-08-07T09:11:14.038Z,28.42
2022-08-07T09:14:31.602Z,28.31
2022-08-07T09:17:23.361Z,27.88
2022-08-07T09:20:35.931Z,27.70
2022-08-07T09:24:33.733Z,27.83
2022-08-07T09:26:53.812Z,27.44
2022-08-07T09:30:05.419Z,26.64
2022-08-07T09:33:40.659Z,26.50
2022-08-07T09:36:27.118Z,26.76
2022-08-07T09:39:54.353Z,26.60
2022-08-07T09:42:50.488Z,26.99
2022-08-07T09:47:25.163Z,26.64
2022-08-07T09:50:00.406Z,26.74
2022-08-07T09:52:33.858Z,26.88
2022-08-07T09:55:16.899Z,27.41
2022-08-07T09:58:10.309Z,27.59
2022-08-07T10:01:52.349Z,27.94
2022-08-07T10:04:47.691Z,27.98
2022-08-07T10:08:10.572Z,28.09
2022-08-07T10:11:17.232Z,28.53
2022-08-07T10:14:35.369Z,28.12
2022-08-07T10:18:02.564Z,27.22
2022-08-07T10:21:50.290Z,27.40
2022-08-07T10:24:30.512Z,26.76
2022-08-07T10:27:46.690Z,26.67
2022-08-07T10:30:51.448Z,27.38
2022-08-07T10:34:05.532Z,27.57
2022-08-07T10:36:55.584Z,28.00
2022-08-07T10:40:06.242Z,28.10
2022-08-07T10:43:08.152Z,28.06
2022-08-07T10:45:57.353Z,27.64
2022-08-07T10:49:02.935Z,26.79
2022-08-07T10:52:12.753Z,26.13
2022-08-07T10:55:21.231Z,25.90
2022-08-07T10:58:10.947Z,26.13
2022-08-07T11:00:58.494Z,26.35
2022-08-07T11:04:11.246Z,27.19
2022-08-07T11:07:56.544Z,27.09
2022-08-07T11:10:27.538Z,27.10
2022-08-07T11:13:42.404Z,26.37
2022-08-07T11:16:29.709Z,26.65
2022-08-07T11:19:21.692Z,28.26
2022-08-07T11:22:32.250Z,29.65
2022-08-07T11:25:36.218Z,31.06
2022-08-07T11:28:25.713Z,30.72
2022-08-07T11:31:27.556Z,30.72
2022-08-07T11:34:26.779Z,29.78
2022-08-07T11:38:10.071Z,28.46
2022-08-07T11:40:39.720Z,27.35
2022-08-07T11:43:41.677Z,26.42
2022-08-07T11:46:43.164Z,26.99
2022-08-07T11:49:50.828Z,28.45
2022-08-07T11:52:39.437Z,28.42
2022-08-07T11:56:09.165Z,28.94
2022-08-07T12:00:10.896Z,31.57
2022-08-07T12:02:52.270Z,33.02
2022-08-07T12:06:37.980Z,34.46
2022-08-07T12:09:16.223Z,34.81
2022-08-07T12:12:20.220Z,35.10
2022-08-07T12:16:05.064Z,34.85
2022-08-07T12:18:38.550Z,35.09
2022-08-07T12:22:36.313Z,35.42
2022-08-07T12:26:22.362Z,35.34
2022-08-07T12:28:37.018Z,35.35
2022-08-07T12:31:22.241Z,35.63
2022-08-07T12:34:01.817Z,36.56
2022-08-07T12:36:37.978Z,37.02
2022-08-07T12:39:44.324Z,37.53
2022-08-07T12:42:10.265Z,35.80
2022-08-07T12:44:47.949Z,35.99
2022-08-07T12:47:45.646Z,36.82
2022-08-07T12:50:48.843Z,36.85
2022-08-07T12:54:02.808Z,37.37
2022-08-07T12:56:56.538Z,37.43
2022-08-07T12:59:54.415Z,36.80
2022-08-07T13:02:56.716Z,37.81
2022-08-07T13:06:21.431Z,38.11
2022-08-07T13:10:22.028Z,38.09
2022-08-07T13:12:23.735Z,37.00
2022-08-07T13:15:14.141Z,36.87
2022-08-07T13:18:10.374Z,36.59
2022-08-07T13:21:12.238Z,35.00
2022-08-07T13:24:00.554Z,33.25
2022-08-07T13:26:58.736Z,31.32
2022-08-07T13:30:05.687Z,31.05
2022-08-07T13:33:46.075Z,31.42
2022-08-07T13:36:17.402Z,30.55
2022-08-07T13:39:49.727Z,29.81
2022-08-07T13:42:21.476Z,28.80
2022-08-07T13:46:07.389Z,29.09
2022-08-07T13:48:05.753Z,30.03
2022-08-07T13:50:45.037Z,30.24
2022-08-07T13:53:59.347Z,30.87
2022-08-07T13:56:40.779Z,31.14
2022-08-07T13:59:20.712Z,30.55
2022-08-07T14:02:10.232Z,29.90
2022-08-07T14:04:51.617Z,30.00
2022-08-07T14:07:31.979Z,29.86
2022-08-07T14:10:21.753Z,30.12
2022-08-07T14:13:05.079Z,30.44
2022-08-07T14:15:42.954Z,30.07
2022-08-07T14:18:29.869Z,28.67
2022-08-07T14:21:20.976Z,27.52
2022-08-07T14:24:11.955Z,26.84
2022-08-07T14:26:58.131Z,26.67
2022-08-07T14:30:05.288Z,26.63
2022-08-07T14:32:31.350Z,27.09
2022-08-07T14:35:06.090Z,27.56
2022-08-07T14:38:03.287Z,27.77
2022-08-07T14:40:39.859Z,28.05
2022-08-07T14:43:57.782Z,28.22
2022-08-07T14:46:11.763Z,28.22
2022-08-07T14:48:52.104Z,27.82
2022-08-07T14:52:05.125Z,27.59
2022-08-07T14:54:31.200Z,27.30
2022-08-07T14:57:19.763Z,26.94
2022-08-07T15:00:03.611Z,26.60
2022-08-07T15:02:39.263Z,26.06
2022-08-07T15:05:20.541Z,25.85
2022-08-07T15:07:58.516Z,25.76
2022-08-07T15:10:31.587Z,26.06
2022-08-07T15:16:11.238Z,26.42
2022-08-07T15:18:51.711Z,26.67
2022-08-07T15:21:44.174Z,26.68
2022-08-07T15:25:16.313Z,26.75
2022-08-07T15:30:19.927Z,26.41
2022-08-07T15:33:03.756Z,26.69
2022-08-07T15:36:01.599Z,27.07
2022-08-07T15:42:43.260Z,27.06
2022-08-07T15:44:23.613Z,26.79
2022-08-07T15:47:08.702Z,26.70
2022-08-07T15:50:05.253Z,26.84
2022-08-07T15:52:40.127Z,26.87
2022-08-07T15:55:18.654Z,26.74
2022-08-07T15:57:53.863Z,26.52
2022-08-07T16:00:39.780Z,26.31
2022-08-07T16:03:46.688Z,26.27
2022-08-07T16:06:15.910Z,26.19
2022-08-07T16:08:49.561Z,26.07
2022-08-07T16:12:12.288Z,26.02
2022-08-07T16:15:58.059Z,25.94
2022-08-07T16:18:50.726Z,25.74
2022-08-07T16:22:03.627Z,25.62
2022-08-07T16:24:57.934Z,25.53
2022-08-07T16:27:43.720Z,25.41
2022-08-07T16:30:30.148Z,25.33
2022-08-07T16:34:02.601Z,25.31
2022-08-07T16:37:02.841Z,25.20
2022-08-07T16:40:23.384Z,25.03
2022-08-07T16:44:06.251Z,25.00
2022-08-07T16:47:05.570Z,25.04
2022-08-07T16:50:28.932Z,25.04
2022-08-07T16:54:01.382Z,25.05
2022-08-07T16:56:25.247Z,24.99
2022-08-07T16:59:23.429Z,24.98
2022-08-07T17:02:05.005Z,24.90
2022-08-07T17:06:01.986Z,24.77
2022-08-07T17:08:03.819Z,24.82
2022-08-07T17:10:54.323Z,24.75
2022-08-07T17:14:18.628Z,24.81
2022-08-07T17:17:01.385Z,24.70
2022-08-07T17:20:02.543Z,24.67
2022-08-07T17:22:48.547Z,24.65
2022-08-07T17:25:51.336Z,24.60
2022-08-07T17:28:25.345Z,24.65
2022-08-07T17:31:17.399Z,24.59
2022-08-07T17:34:33.693Z,24.49
2022-08-07T17:38:09.397Z,24.49
2022-08-07T17:40:50.472Z,24.49
2022-08-07T17:44:01.825Z,24.31
2022-08-07T17:46:53.226Z,24.20
2022-08-07T17:49:53.924Z,24.03
2022-08-07T17:52:34.057Z,24.01
2022-08-07T17:55:59.998Z,23.93
2022-08-07T17:58:46.533Z,23.85
2022-08-07T18:01:43.268Z,23.81
2022-08-07T18:05:21.448Z,23.70
2022-08-07T18:08:26.578Z,23.54
2022-08-07T18:12:17.545Z,23.40
2022-08-07T18:14:37.631Z,23.37
2022-08-07T18:18:47.500Z,23.27
2022-08-07T18:21:38.297Z,23.17
2022-08-07T18:24:51.230Z,23.13
2022-08-07T18:27:38.239Z,23.06
2022-08-07T18:30:31.185Z,23.00
2022-08-07T18:33:55.367Z,22.95
2022-08-07T18:37:00.312Z,22.76
2022-08-07T18:40:07.040Z,22.69
2022-08-07T18:43:06.428Z,22.64
2022-08-07T18:46:21.740Z,22.54
2022-08-07T18:50:19.720Z,22.50
2022-08-07T18:52:52.969Z,22.42
2022-08-07T18:55:57.415Z,22.35
2022-08-07T18:58:52.306Z,22.25
2022-08-07T19:02:18.305Z,22.23
2022-08-07T19:05:15.853Z,22.17
2022-08-07T19:08:18.137Z,22.09
2022-08-07T19:11:36.033Z,22.05
2022-08-07T19:14:39.078Z,22.02
2022-08-07T19:17:58.909Z,21.96
2022-08-07T19:20:29.032Z,21.94
2022-08-07T19:23:57.196Z,21.84
2022-08-07T19:26:23.559Z,21.79
2022-08-07T19:31:01.704Z,21.71
2022-08-07T19:32:25.915Z,21.66
2022-08-07T19:35:25.861Z,21.57
2022-08-07T19:38:00.783Z,21.45
2022-08-07T19:40:50.745Z,21.42
2022-08-07T19:43:45.660Z,21.35
2022-08-07T19:46:33.814Z,21.30
2022-08-07T19:49:17.437Z,21.24
2022-08-07T19:52:18.206Z,21.15
2022-08-07T19:54:55.686Z,21.07
2022-08-07T19:58:01.165Z,20.99
2022-08-07T20:00:34.725Z,20.90
2022-08-07T20:03:35.513Z,20.92
2022-08-07T20:06:15.518Z,20.87
2022-08-07T20:09:02.967Z,20.77
2022-08-07T20:12:23.201Z,20.67
2022-08-07T20:14:54.200Z,20.60
2022-08-07T20:17:40.240Z,20.53
2022-08-07T20:20:22.642Z,20.48
2022-08-07T20:23:23.348Z,20.43
2022-08-07T20:26:04.568Z,20.36
2022-08-07T20:28:44.376Z,20.27
2022-08-07T20:31:20.998Z,20.22
2022-08-07T20:33:57.734Z,20.21
2022-08-07T20:36:31.680Z,20.12
2022-08-07T20:39:17.781Z,20.05
2022-08-07T20:41:58.683Z,19.97
2022-08-07T20:44:39.937Z,19.93
2022-08-07T20:47:26.101Z,19.91
2022-08-07T20:50:21.220Z,19.84
2022-08-07T20:52:54.134Z,19.79
2022-08-07T20:55:26.882Z,19.70
2022-08-07T20:58:03.655Z,19.63
2022-08-07T21:00:47.659Z,19.58
2022-08-07T21:03:23.365Z,19.57
2022-08-07T21:06:21.444Z,19.54
2022-08-07T21:09:07.529Z,19.50
2022-08-07T21:11:53.087Z,19.48
2022-08-07T21:14:33.243Z,19.39
2022-08-07T21:18:02.675Z,19.30
2022-08-07T21:20:06.970Z,19.24
2022-08-07T21:22:54.078Z,19.18
2022-08-07T21:25:42.402Z,19.12
2022-08-07T21:28:48.941Z,19.06
2022-08-07T21:31:49.826Z,19.02
2022-08-07T21:34:46.003Z,19.04
2022-08-07T21:37:57.191Z,18.98
2022-08-07T21:40:42.029Z,18.94
2022-08-07T21:43:55.802Z,18.95
2022-08-07T21:46:44.208Z,18.98
2022-08-07T21:49:40.734Z,18.90
2022-08-07T21:52:54.353Z,18.84
2022-08-07T21:56:36.530Z,18.75
2022-08-07T22:00:04.162Z,18.63
2022-08-07T22:02:57.628Z,18.62
2022-08-07T22:05:45.766Z,18.59
2022-08-07T22:08:24.760Z,18.57
2022-08-07T22:11:03.843Z,18.57
2022-08-07T22:13:51.261Z,18.54
2022-08-07T22:16:46.179Z,18.50
2022-08-07T22:19:30.448Z,18.49
2022-08-07T22:22:21.037Z,18.47
2022-08-07T22:25:08.285Z,18.43
2022-08-07T22:28:07.971Z,18.44
2022-08-07T22:30:57.553Z,18.46
2022-08-07T22:34:04.749Z,18.44
2022-08-07T22:36:55.229Z,18.44
2022-08-07T22:39:53.023Z,18.42
2022-08-07T22:42:30.487Z,18.39
2022-08-07T22:45:21.773Z,18.37
2022-08-07T22:48:31.630Z,18.31
2022-08-07T22:51:43.682Z,18.21
2022-08-07T22:55:17.181Z,18.15
2022-08-07T22:58:18.883Z,18.06
2022-08-07T23:01:49.877Z,18.08
2022-08-07T23:06:10.292Z,17.97
2022-08-07T23:08:07.153Z,17.96
2022-08-07T23:11:29.393Z,17.91
2022-08-07T23:14:40.930Z,17.88
2022-08-07T23:17:58.542Z,17.77
2022-08-07T23:20:59.706Z,17.77
2022-08-07T23:24:05.608Z,17.78
2022-08-07T23:27:13.513Z,17.82
2022-08-07T23:30:38.524Z,17.79
2022-08-07T23:34:36.712Z,17.76
2022-08-07T23:37:20.340Z,17.68
2022-08-07T23:40:24.142Z,17.59
2022-08-07T23:43:38.201Z,17.58
2022-08-07T23:46:28.775Z,17.56
2022-08-07T23:49:50.709Z,17.53
2022-08-07T23:53:00.908Z,17.50
2022-08-07T23:55:58.423Z,17.49
2022-08-07T23:58:42.841Z,17.47
